sensor_id;sensor_type;location;lat;lon;timestamp;P1;durP1;ratioP1;P2;durP2;ratioP2
29902;SDS011;30288;50.514;9.678;2023-02-01T00:01:14;11.93;;;6.18;;
29902;SDS011;30288;50.514;9.678;2023-02-01T00:03:19;13.18;;;5.82;;
29902;SDS011;30288;50.514;9.678;2023-02-01T00:05:24;11.40;;;5.90;;
29902;SDS011;30288;50.514;9.678;2023-02-01T00:07:29;12.35;;;5.82;;
29902;SDS011;30288;50.514;9.678;2023-02-01T00:09:35;12.10;;;6.20;;
29902;SDS011;30288;50.514;9.678;2023-02-01T00:11:40;14.77;;;5.78;;
29902;SDS011;30288;50.514;9.678;2023-02-01T00:13:48;12.48;;;6.15;;
29902;SDS011;30288;50.514;9.678;2023-02-01T00:15:53;13.68;;;6.05;;
29902;SDS011;30288;50.514;9.678;2023-02-01T00:17:58;12.43;;;5.72;;
29902;SDS011;30288;50.514;9.678;2023-02-01T00:20:04;15.23;;;5.72;;
29902;SDS011;30288;50.514;9.678;2023-02-01T00:22:11;13.55;;;5.82;;
29902;SDS011;30288;50.514;9.678;2023-02-01T00:24:16;12.68;;;5.50;;
29902;SDS011;30288;50.514;9.678;2023-02-01T00:26:22;17.33;;;5.95;;
29902;SDS011;30288;50.514;9.678;2023-02-01T00:28:35;19.27;;;5.95;;
29902;SDS011;30288;50.514;9.678;2023-02-01T00:30:42;16.13;;;5.90;;
29902;SDS011;30288;50.514;9.678;2023-02-01T00:32:48;16.88;;;6.43;;
29902;SDS011;30288;50.514;9.678;2023-02-01T00:34:53;23.52;;;7.45;;
29902;SDS011;30288;50.514;9.678;2023-02-01T00:36:58;17.75;;;6.53;;
29902;SDS011;30288;50.514;9.678;2023-02-01T00:39:04;17.98;;;6.20;;
29902;SDS011;30288;50.514;9.678;2023-02-01T00:41:12;23.08;;;6.20;;
29902;SDS011;30288;50.514;9.678;2023-02-01T00:43:20;17.75;;;6.53;;
29902;SDS011;30288;50.514;9.678;2023-02-01T00:45:25;14.52;;;5.93;;
29902;SDS011;30288;50.514;9.678;2023-02-01T00:47:33;18.08;;;5.65;;
29902;SDS011;30288;50.514;9.678;2023-02-01T00:49:38;17.05;;;6.28;;
29902;SDS011;30288;50.514;9.678;2023-02-01T00:51:43;19.63;;;6.25;;
29902;SDS011;30288;50.514;9.678;2023-02-01T00:53:48;15.20;;;5.93;;
29902;SDS011;30288;50.514;9.678;2023-02-01T00:55:54;20.75;;;5.80;;
29902;SDS011;30288;50.514;9.678;2023-02-01T00:58:00;13.80;;;5.15;;
29902;SDS011;30288;50.514;9.678;2023-02-01T01:00:08;17.55;;;5.85;;
29902;SDS011;30288;50.514;9.678;2023-02-01T01:02:14;19.75;;;6.30;;
29902;SDS011;30288;50.514;9.678;2023-02-01T01:04:23;14.73;;;6.13;;
29902;SDS011;30288;50.514;9.678;2023-02-01T01:06:29;17.70;;;6.32;;
29902;SDS011;30288;50.514;9.678;2023-02-01T01:08:37;12.13;;;5.13;;
29902;SDS011;30288;50.514;9.678;2023-02-01T01:10:43;15.70;;;6.28;;
29902;SDS011;30288;50.514;9.678;2023-02-01T01:12:49;13.77;;;5.45;;
29902;SDS011;30288;50.514;9.678;2023-02-01T01:14:54;9.68;;;5.28;;
29902;SDS011;30288;50.514;9.678;2023-02-01T01:16:59;11.90;;;5.80;;
29902;SDS011;30288;50.514;9.678;2023-02-01T01:19:04;16.40;;;5.60;;
29902;SDS011;30288;50.514;9.678;2023-02-01T01:21:14;12.25;;;5.68;;
29902;SDS011;30288;50.514;9.678;2023-02-01T01:23:20;10.75;;;5.20;;
29902;SDS011;30288;50.514;9.678;2023-02-01T01:25:25;12.50;;;6.32;;
29902;SDS011;30288;50.514;9.678;2023-02-01T01:27:30;14.35;;;6.15;;
29902;SDS011;30288;50.514;9.678;2023-02-01T01:29:35;14.82;;;6.85;;
29902;SDS011;30288;50.514;9.678;2023-02-01T01:31:41;17.90;;;7.65;;
29902;SDS011;30288;50.514;9.678;2023-02-01T01:33:50;19.90;;;6.65;;
29902;SDS011;30288;50.514;9.678;2023-02-01T01:35:57;13.43;;;7.53;;
29902;SDS011;30288;50.514;9.678;2023-02-01T01:38:04;12.50;;;6.63;;
29902;SDS011;30288;50.514;9.678;2023-02-01T01:40:10;18.58;;;7.70;;
29902;SDS011;30288;50.514;9.678;2023-02-01T01:42:16;19.27;;;8.18;;
29902;SDS011;30288;50.514;9.678;2023-02-01T01:47:07;20.00;;;8.35;;
29902;SDS011;30288;50.514;9.678;2023-02-01T01:49:14;19.27;;;8.48;;
29902;SDS011;30288;50.514;9.678;2023-02-01T01:51:24;19.58;;;8.35;;
29902;SDS011;30288;50.514;9.678;2023-02-01T01:53:36;16.58;;;9.10;;
29902;SDS011;30288;50.514;9.678;2023-02-01T01:55:46;21.20;;;8.82;;
29902;SDS011;30288;50.514;9.678;2023-02-01T01:57:55;17.67;;;9.45;;
29902;SDS011;30288;50.514;9.678;2023-02-01T02:00:08;20.17;;;8.93;;
29902;SDS011;30288;50.514;9.678;2023-02-01T02:02:18;24.15;;;10.60;;
29902;SDS011;30288;50.514;9.678;2023-02-01T02:04:24;25.92;;;9.63;;
29902;SDS011;30288;50.514;9.678;2023-02-01T02:06:35;17.40;;;9.50;;
29902;SDS011;30288;50.514;9.678;2023-02-01T02:08:52;19.00;;;9.32;;
29902;SDS011;30288;50.514;9.678;2023-02-01T02:10:57;22.55;;;9.52;;
29902;SDS011;30288;50.514;9.678;2023-02-01T02:13:04;21.15;;;9.13;;
29902;SDS011;30288;50.514;9.678;2023-02-01T02:15:11;17.00;;;9.18;;
29902;SDS011;30288;50.514;9.678;2023-02-01T02:17:23;17.35;;;8.68;;
29902;SDS011;30288;50.514;9.678;2023-02-01T02:22:43;21.70;;;9.07;;
29902;SDS011;30288;50.514;9.678;2023-02-01T02:25:25;19.25;;;8.65;;
29902;SDS011;30288;50.514;9.678;2023-02-01T02:27:46;22.60;;;9.52;;
29902;SDS011;30288;50.514;9.678;2023-02-01T02:30:16;20.38;;;9.55;;
29902;SDS011;30288;50.514;9.678;2023-02-01T02:35:42;23.90;;;8.98;;
29902;SDS011;30288;50.514;9.678;2023-02-01T02:37:57;22.75;;;8.95;;
29902;SDS011;30288;50.514;9.678;2023-02-01T02:40:18;26.35;;;9.60;;
29902;SDS011;30288;50.514;9.678;2023-02-01T02:42:32;23.45;;;9.38;;
29902;SDS011;30288;50.514;9.678;2023-02-01T02:45:01;19.10;;;8.85;;
29902;SDS011;30288;50.514;9.678;2023-02-01T02:47:26;19.95;;;9.45;;
29902;SDS011;30288;50.514;9.678;2023-02-01T02:49:41;21.83;;;9.35;;
29902;SDS011;30288;50.514;9.678;2023-02-01T02:52:16;21.92;;;9.32;;
29902;SDS011;30288;50.514;9.678;2023-02-01T02:54:38;23.80;;;9.88;;
29902;SDS011;30288;50.514;9.678;2023-02-01T02:56:53;24.85;;;10.88;;
29902;SDS011;30288;50.514;9.678;2023-02-01T02:59:15;19.95;;;9.00;;
29902;SDS011;30288;50.514;9.678;2023-02-01T03:01:38;17.45;;;8.43;;
29902;SDS011;30288;50.514;9.678;2023-02-01T03:03:58;18.20;;;9.02;;
29902;SDS011;30288;50.514;9.678;2023-02-01T03:06:16;17.33;;;9.73;;
29902;SDS011;30288;50.514;9.678;2023-02-01T03:08:23;22.75;;;9.63;;
29902;SDS011;30288;50.514;9.678;2023-02-01T03:10:32;22.90;;;10.18;;
29902;SDS011;30288;50.514;9.678;2023-02-01T03:12:59;19.30;;;9.77;;
29902;SDS011;30288;50.514;9.678;2023-02-01T03:15:08;16.10;;;9.40;;
29902;SDS011;30288;50.514;9.678;2023-02-01T03:17:18;18.10;;;9.20;;
29902;SDS011;30288;50.514;9.678;2023-02-01T03:19:29;24.23;;;11.02;;
29902;SDS011;30288;50.514;9.678;2023-02-01T03:21:43;25.38;;;9.60;;
29902;SDS011;30288;50.514;9.678;2023-02-01T03:23:52;17.02;;;9.48;;
29902;SDS011;30288;50.514;9.678;2023-02-01T03:26:00;18.45;;;9.63;;
29902;SDS011;30288;50.514;9.678;2023-02-01T03:28:09;16.50;;;8.30;;
29902;SDS011;30288;50.514;9.678;2023-02-01T03:30:17;21.85;;;8.98;;
29902;SDS011;30288;50.514;9.678;2023-02-01T03:32:27;18.75;;;8.00;;
29902;SDS011;30288;50.514;9.678;2023-02-01T03:34:52;14.93;;;7.47;;
29902;SDS011;30288;50.514;9.678;2023-02-01T03:37:01;16.17;;;6.80;;
29902;SDS011;30288;50.514;9.678;2023-02-01T03:39:12;14.07;;;7.22;;
29902;SDS011;30288;50.514;9.678;2023-02-01T03:41:26;22.33;;;7.50;;
29902;SDS011;30288;50.514;9.678;2023-02-01T03:43:42;20.98;;;7.43;;
29902;SDS011;30288;50.514;9.678;2023-02-01T03:45:59;19.75;;;6.60;;
29902;SDS011;30288;50.514;9.678;2023-02-01T03:48:10;16.67;;;5.50;;
29902;SDS011;30288;50.514;9.678;2023-02-01T03:50:18;14.70;;;5.53;;
29902;SDS011;30288;50.514;9.678;2023-02-01T03:52:30;18.33;;;6.15;;
29902;SDS011;30288;50.514;9.678;2023-02-01T03:54:42;13.60;;;5.70;;
29902;SDS011;30288;50.514;9.678;2023-02-01T03:56:48;17.25;;;5.97;;
29902;SDS011;30288;50.514;9.678;2023-02-01T03:58:59;12.82;;;5.82;;
29902;SDS011;30288;50.514;9.678;2023-02-01T04:01:08;19.95;;;6.80;;
29902;SDS011;30288;50.514;9.678;2023-02-01T04:03:14;16.85;;;6.05;;
29902;SDS011;30288;50.514;9.678;2023-02-01T04:05:20;16.95;;;6.50;;
29902;SDS011;30288;50.514;9.678;2023-02-01T04:07:36;21.13;;;7.72;;
29902;SDS011;30288;50.514;9.678;2023-02-01T04:09:42;14.90;;;6.40;;
29902;SDS011;30288;50.514;9.678;2023-02-01T04:11:47;15.10;;;6.28;;
29902;SDS011;30288;50.514;9.678;2023-02-01T04:13:52;19.05;;;6.40;;
29902;SDS011;30288;50.514;9.678;2023-02-01T04:15:57;17.55;;;6.43;;
29902;SDS011;30288;50.514;9.678;2023-02-01T04:18:03;16.02;;;6.82;;
29902;SDS011;30288;50.514;9.678;2023-02-01T04:20:09;17.00;;;6.43;;
29902;SDS011;30288;50.514;9.678;2023-02-01T04:22:15;19.02;;;7.22;;
29902;SDS011;30288;50.514;9.678;2023-02-01T04:24:23;21.55;;;6.78;;
29902;SDS011;30288;50.514;9.678;2023-02-01T04:26:28;17.63;;;6.72;;
29902;SDS011;30288;50.514;9.678;2023-02-01T04:28:33;17.25;;;6.25;;
29902;SDS011;30288;50.514;9.678;2023-02-01T04:30:39;14.52;;;6.43;;
29902;SDS011;30288;50.514;9.678;2023-02-01T04:32:44;19.08;;;7.13;;
29902;SDS011;30288;50.514;9.678;2023-02-01T04:34:49;19.80;;;7.80;;
29902;SDS011;30288;50.514;9.678;2023-02-01T04:36:55;19.98;;;6.18;;
29902;SDS011;30288;50.514;9.678;2023-02-01T04:39:00;19.42;;;6.35;;
29902;SDS011;30288;50.514;9.678;2023-02-01T04:41:08;21.00;;;6.85;;
29902;SDS011;30288;50.514;9.678;2023-02-01T04:43:13;15.40;;;6.13;;
29902;SDS011;30288;50.514;9.678;2023-02-01T04:45:18;22.23;;;6.53;;
29902;SDS011;30288;50.514;9.678;2023-02-01T04:47:24;16.27;;;5.70;;
29902;SDS011;30288;50.514;9.678;2023-02-01T04:49:29;18.38;;;5.82;;
29902;SDS011;30288;50.514;9.678;2023-02-01T04:51:35;15.68;;;6.22;;
29902;SDS011;30288;50.514;9.678;2023-02-01T04:53:41;22.17;;;6.53;;
29902;SDS011;30288;50.514;9.678;2023-02-01T04:55:47;20.15;;;6.00;;
29902;SDS011;30288;50.514;9.678;2023-02-01T04:57:56;14.02;;;5.70;;
29902;SDS011;30288;50.514;9.678;2023-02-01T05:00:01;14.80;;;6.30;;
29902;SDS011;30288;50.514;9.678;2023-02-01T05:02:09;19.73;;;6.72;;
29902;SDS011;30288;50.514;9.678;2023-02-01T05:04:14;14.45;;;5.80;;
29902;SDS011;30288;50.514;9.678;2023-02-01T05:06:20;21.85;;;6.50;;
29902;SDS011;30288;50.514;9.678;2023-02-01T05:08:26;12.77;;;5.50;;
29902;SDS011;30288;50.514;9.678;2023-02-01T05:10:32;13.32;;;5.43;;
29902;SDS011;30288;50.514;9.678;2023-02-01T05:12:37;14.98;;;5.70;;
29902;SDS011;30288;50.514;9.678;2023-02-01T05:14:57;21.13;;;6.13;;
29902;SDS011;30288;50.514;9.678;2023-02-01T05:17:02;14.18;;;5.35;;
29902;SDS011;30288;50.514;9.678;2023-02-01T05:19:07;23.17;;;6.05;;
29902;SDS011;30288;50.514;9.678;2023-02-01T05:21:12;15.07;;;5.38;;
29902;SDS011;30288;50.514;9.678;2023-02-01T05:23:18;19.60;;;5.97;;
29902;SDS011;30288;50.514;9.678;2023-02-01T05:25:23;18.65;;;5.25;;
29902;SDS011;30288;50.514;9.678;2023-02-01T05:27:29;15.68;;;5.22;;
29902;SDS011;30288;50.514;9.678;2023-02-01T05:29:35;17.77;;;6.05;;
29902;SDS011;30288;50.514;9.678;2023-02-01T05:31:43;17.50;;;4.90;;
29902;SDS011;30288;50.514;9.678;2023-02-01T05:33:50;16.50;;;4.70;;
29902;SDS011;30288;50.514;9.678;2023-02-01T05:35:55;18.52;;;4.93;;
29902;SDS011;30288;50.514;9.678;2023-02-01T05:38:00;14.65;;;5.18;;
29902;SDS011;30288;50.514;9.678;2023-02-01T05:40:06;11.80;;;5.45;;
29902;SDS011;30288;50.514;9.678;2023-02-01T05:42:13;19.40;;;4.97;;
29902;SDS011;30288;50.514;9.678;2023-02-01T05:44:18;19.08;;;4.63;;
29902;SDS011;30288;50.514;9.678;2023-02-01T05:46:23;17.10;;;4.95;;
29902;SDS011;30288;50.514;9.678;2023-02-01T05:48:31;16.95;;;4.32;;
29902;SDS011;30288;50.514;9.678;2023-02-01T05:50:36;17.92;;;4.53;;
29902;SDS011;30288;50.514;9.678;2023-02-01T05:52:45;21.80;;;4.57;;
29902;SDS011;30288;50.514;9.678;2023-02-01T05:54:50;20.85;;;4.30;;
29902;SDS011;30288;50.514;9.678;2023-02-01T05:56:55;20.52;;;5.00;;
29902;SDS011;30288;50.514;9.678;2023-02-01T05:59:00;24.75;;;5.43;;
29902;SDS011;30288;50.514;9.678;2023-02-01T06:01:05;16.48;;;4.78;;
29902;SDS011;30288;50.514;9.678;2023-02-01T06:03:10;13.63;;;5.18;;
29902;SDS011;30288;50.514;9.678;2023-02-01T06:05:18;19.05;;;4.55;;
29902;SDS011;30288;50.514;9.678;2023-02-01T06:07:24;16.65;;;4.85;;
29902;SDS011;30288;50.514;9.678;2023-02-01T06:09:30;15.77;;;4.28;;
29902;SDS011;30288;50.514;9.678;2023-02-01T06:11:35;21.13;;;5.93;;
29902;SDS011;30288;50.514;9.678;2023-02-01T06:13:42;23.75;;;5.32;;
29902;SDS011;30288;50.514;9.678;2023-02-01T06:15:47;14.07;;;4.25;;
29902;SDS011;30288;50.514;9.678;2023-02-01T06:17:52;22.02;;;4.70;;
29902;SDS011;30288;50.514;9.678;2023-02-01T06:19:57;16.90;;;4.50;;
29902;SDS011;30288;50.514;9.678;2023-02-01T06:22:06;14.82;;;4.20;;
29902;SDS011;30288;50.514;9.678;2023-02-01T06:24:11;18.60;;;4.65;;
29902;SDS011;30288;50.514;9.678;2023-02-01T06:26:16;21.63;;;3.95;;
29902;SDS011;30288;50.514;9.678;2023-02-01T06:28:22;20.75;;;4.40;;
29902;SDS011;30288;50.514;9.678;2023-02-01T06:30:27;23.27;;;4.78;;
29902;SDS011;30288;50.514;9.678;2023-02-01T06:32:32;17.23;;;4.30;;
29902;SDS011;30288;50.514;9.678;2023-02-01T06:34:38;13.00;;;4.05;;
29902;SDS011;30288;50.514;9.678;2023-02-01T06:36:43;13.98;;;3.90;;
29902;SDS011;30288;50.514;9.678;2023-02-01T06:38:51;17.95;;;4.50;;
29902;SDS011;30288;50.514;9.678;2023-02-01T06:41:00;19.38;;;4.68;;
29902;SDS011;30288;50.514;9.678;2023-02-01T06:43:05;19.15;;;4.15;;
29902;SDS011;30288;50.514;9.678;2023-02-01T06:45:10;17.17;;;4.82;;
29902;SDS011;30288;50.514;9.678;2023-02-01T06:47:15;17.30;;;4.40;;
29902;SDS011;30288;50.514;9.678;2023-02-01T06:49:20;14.75;;;4.82;;
29902;SDS011;30288;50.514;9.678;2023-02-01T06:51:27;21.83;;;4.90;;
29902;SDS011;30288;50.514;9.678;2023-02-01T06:53:32;21.10;;;4.53;;
29902;SDS011;30288;50.514;9.678;2023-02-01T06:55:40;13.63;;;3.50;;
29902;SDS011;30288;50.514;9.678;2023-02-01T06:57:46;21.42;;;4.82;;
29902;SDS011;30288;50.514;9.678;2023-02-01T06:59:51;19.02;;;4.20;;
29902;SDS011;30288;50.514;9.678;2023-02-01T07:01:56;13.88;;;4.57;;
29902;SDS011;30288;50.514;9.678;2023-02-01T07:04:01;15.50;;;3.85;;
29902;SDS011;30288;50.514;9.678;2023-02-01T07:06:07;21.80;;;4.32;;
29902;SDS011;30288;50.514;9.678;2023-02-01T07:08:14;24.88;;;4.38;;
29902;SDS011;30288;50.514;9.678;2023-02-01T07:10:19;17.30;;;4.40;;
29902;SDS011;30288;50.514;9.678;2023-02-01T07:12:27;21.67;;;4.55;;
29902;SDS011;30288;50.514;9.678;2023-02-01T07:14:32;13.13;;;4.10;;
29902;SDS011;30288;50.514;9.678;2023-02-01T07:16:38;17.17;;;3.85;;
29902;SDS011;30288;50.514;9.678;2023-02-01T07:18:43;15.25;;;4.05;;
29902;SDS011;30288;50.514;9.678;2023-02-01T07:20:49;21.27;;;4.00;;
29902;SDS011;30288;50.514;9.678;2023-02-01T07:22:56;19.83;;;4.80;;
29902;SDS011;30288;50.514;9.678;2023-02-01T07:25:01;23.98;;;4.95;;
29902;SDS011;30288;50.514;9.678;2023-02-01T07:27:07;13.88;;;3.88;;
29902;SDS011;30288;50.514;9.678;2023-02-01T07:29:16;28.88;;;5.80;;
29902;SDS011;30288;50.514;9.678;2023-02-01T07:31:22;15.20;;;3.78;;
29902;SDS011;30288;50.514;9.678;2023-02-01T07:33:30;13.80;;;3.55;;
29902;SDS011;30288;50.514;9.678;2023-02-01T07:35:37;19.35;;;5.03;;
29902;SDS011;30288;50.514;9.678;2023-02-01T07:37:42;18.52;;;3.88;;
29902;SDS011;30288;50.514;9.678;2023-02-01T07:39:47;19.17;;;3.80;;
29902;SDS011;30288;50.514;9.678;2023-02-01T07:41:52;14.88;;;3.63;;
29902;SDS011;30288;50.514;9.678;2023-02-01T07:43:58;18.85;;;4.75;;
29902;SDS011;30288;50.514;9.678;2023-02-01T07:46:05;22.52;;;4.68;;
29902;SDS011;30288;50.514;9.678;2023-02-01T07:48:11;19.75;;;4.28;;
29902;SDS011;30288;50.514;9.678;2023-02-01T07:50:17;22.35;;;4.82;;
29902;SDS011;30288;50.514;9.678;2023-02-01T07:52:23;17.92;;;4.03;;
29902;SDS011;30288;50.514;9.678;2023-02-01T07:54:28;16.58;;;4.00;;
29902;SDS011;30288;50.514;9.678;2023-02-01T07:56:33;13.70;;;3.65;;
29902;SDS011;30288;50.514;9.678;2023-02-01T07:58:38;12.98;;;3.70;;
29902;SDS011;30288;50.514;9.678;2023-02-01T08:00:44;18.58;;;3.80;;
29902;SDS011;30288;50.514;9.678;2023-02-01T08:03:07;16.48;;;3.63;;
29902;SDS011;30288;50.514;9.678;2023-02-01T08:05:13;19.67;;;4.22;;
29902;SDS011;30288;50.514;9.678;2023-02-01T08:07:19;13.50;;;3.75;;
29902;SDS011;30288;50.514;9.678;2023-02-01T08:09:24;16.17;;;4.10;;
29902;SDS011;30288;50.514;9.678;2023-02-01T08:11:29;18.65;;;4.15;;
29902;SDS011;30288;50.514;9.678;2023-02-01T08:13:38;20.00;;;4.47;;
29902;SDS011;30288;50.514;9.678;2023-02-01T08:15:45;17.42;;;3.97;;
29902;SDS011;30288;50.514;9.678;2023-02-01T08:17:52;18.48;;;4.82;;
29902;SDS011;30288;50.514;9.678;2023-02-01T08:20:03;16.38;;;4.30;;
29902;SDS011;30288;50.514;9.678;2023-02-01T08:22:12;16.52;;;4.30;;
29902;SDS011;30288;50.514;9.678;2023-02-01T08:24:19;18.70;;;4.38;;
29902;SDS011;30288;50.514;9.678;2023-02-01T08:26:25;19.25;;;3.90;;
29902;SDS011;30288;50.514;9.678;2023-02-01T08:28:31;16.42;;;3.70;;
29902;SDS011;30288;50.514;9.678;2023-02-01T08:30:38;14.73;;;3.70;;
29902;SDS011;30288;50.514;9.678;2023-02-01T08:32:44;17.27;;;3.90;;
29902;SDS011;30288;50.514;9.678;2023-02-01T08:34:49;19.27;;;3.90;;
29902;SDS011;30288;50.514;9.678;2023-02-01T08:36:56;15.60;;;4.05;;
29902;SDS011;30288;50.514;9.678;2023-02-01T08:39:01;11.32;;;3.90;;
29902;SDS011;30288;50.514;9.678;2023-02-01T08:41:11;18.13;;;4.90;;
29902;SDS011;30288;50.514;9.678;2023-02-01T08:43:18;19.25;;;4.47;;
29902;SDS011;30288;50.514;9.678;2023-02-01T08:45:23;23.95;;;4.57;;
29902;SDS011;30288;50.514;9.678;2023-02-01T08:47:31;15.95;;;4.53;;
29902;SDS011;30288;50.514;9.678;2023-02-01T08:49:36;13.13;;;4.10;;
29902;SDS011;30288;50.514;9.678;2023-02-01T08:51:42;22.95;;;4.65;;
29902;SDS011;30288;50.514;9.678;2023-02-01T08:53:50;16.52;;;4.28;;
29902;SDS011;30288;50.514;9.678;2023-02-01T08:55:55;14.35;;;3.78;;
29902;SDS011;30288;50.514;9.678;2023-02-01T08:58:00;29.75;;;5.68;;
29902;SDS011;30288;50.514;9.678;2023-02-01T09:00:06;21.25;;;5.13;;
29902;SDS011;30288;50.514;9.678;2023-02-01T09:02:15;15.05;;;4.57;;
29902;SDS011;30288;50.514;9.678;2023-02-01T09:04:23;17.42;;;4.60;;
29902;SDS011;30288;50.514;9.678;2023-02-01T09:06:28;18.35;;;4.20;;
29902;SDS011;30288;50.514;9.678;2023-02-01T09:08:34;15.70;;;4.25;;
29902;SDS011;30288;50.514;9.678;2023-02-01T09:10:43;22.23;;;4.43;;
29902;SDS011;30288;50.514;9.678;2023-02-01T09:12:48;22.90;;;4.55;;
29902;SDS011;30288;50.514;9.678;2023-02-01T09:14:53;20.23;;;4.53;;
29902;SDS011;30288;50.514;9.678;2023-02-01T09:17:01;14.13;;;4.50;;
29902;SDS011;30288;50.514;9.678;2023-02-01T09:19:06;22.67;;;4.65;;
29902;SDS011;30288;50.514;9.678;2023-02-01T09:21:28;16.83;;;3.80;;
29902;SDS011;30288;50.514;9.678;2023-02-01T09:23:33;16.13;;;3.83;;
29902;SDS011;30288;50.514;9.678;2023-02-01T09:25:43;12.55;;;4.07;;
29902;SDS011;30288;50.514;9.678;2023-02-01T09:27:50;20.20;;;4.03;;
29902;SDS011;30288;50.514;9.678;2023-02-01T09:29:55;18.95;;;4.50;;
29902;SDS011;30288;50.514;9.678;2023-02-01T09:32:00;17.20;;;4.00;;
29902;SDS011;30288;50.514;9.678;2023-02-01T09:34:08;22.67;;;4.53;;
29902;SDS011;30288;50.514;9.678;2023-02-01T09:36:13;20.67;;;4.78;;
29902;SDS011;30288;50.514;9.678;2023-02-01T09:38:21;14.38;;;4.40;;
29902;SDS011;30288;50.514;9.678;2023-02-01T09:40:27;15.40;;;3.90;;
29902;SDS011;30288;50.514;9.678;2023-02-01T09:42:44;19.92;;;4.43;;
29902;SDS011;30288;50.514;9.678;2023-02-01T09:45:18;14.32;;;4.05;;
29902;SDS011;30288;50.514;9.678;2023-02-01T09:47:30;17.55;;;4.13;;
29902;SDS011;30288;50.514;9.678;2023-02-01T09:49:37;19.45;;;5.32;;
29902;SDS011;30288;50.514;9.678;2023-02-01T09:51:54;16.10;;;4.15;;
29902;SDS011;30288;50.514;9.678;2023-02-01T09:54:02;21.35;;;4.65;;
29902;SDS011;30288;50.514;9.678;2023-02-01T09:56:13;16.25;;;3.78;;
29902;SDS011;30288;50.514;9.678;2023-02-01T09:58:29;17.63;;;3.60;;
29902;SDS011;30288;50.514;9.678;2023-02-01T10:00:39;18.75;;;4.40;;
29902;SDS011;30288;50.514;9.678;2023-02-01T10:02:49;18.70;;;4.30;;
29902;SDS011;30288;50.514;9.678;2023-02-01T10:04:55;14.00;;;4.32;;
29902;SDS011;30288;50.514;9.678;2023-02-01T10:07:07;14.65;;;4.43;;
29902;SDS011;30288;50.514;9.678;2023-02-01T10:09:29;18.33;;;4.90;;
29902;SDS011;30288;50.514;9.678;2023-02-01T10:11:53;18.05;;;3.97;;
29902;SDS011;30288;50.514;9.678;2023-02-01T10:14:34;16.42;;;3.58;;
29902;SDS011;30288;50.514;9.678;2023-02-01T10:16:52;23.13;;;5.18;;
29902;SDS011;30288;50.514;9.678;2023-02-01T10:19:10;17.13;;;4.20;;
29902;SDS011;30288;50.514;9.678;2023-02-01T10:21:42;18.48;;;4.25;;
29902;SDS011;30288;50.514;9.678;2023-02-01T10:24:01;16.98;;;3.45;;
29902;SDS011;30288;50.514;9.678;2023-02-01T10:26:19;16.88;;;3.72;;
29902;SDS011;30288;50.514;9.678;2023-02-01T10:28:27;19.73;;;4.57;;
29902;SDS011;30288;50.514;9.678;2023-02-01T10:30:37;19.25;;;4.25;;
29902;SDS011;30288;50.514;9.678;2023-02-01T10:32:48;27.73;;;4.82;;
29902;SDS011;30288;50.514;9.678;2023-02-01T10:35:00;14.15;;;3.88;;
29902;SDS011;30288;50.514;9.678;2023-02-01T10:37:17;22.77;;;4.28;;
29902;SDS011;30288;50.514;9.678;2023-02-01T10:39:31;18.08;;;3.25;;
29902;SDS011;30288;50.514;9.678;2023-02-01T10:41:37;13.40;;;3.20;;
29902;SDS011;30288;50.514;9.678;2023-02-01T10:43:44;13.82;;;3.80;;
29902;SDS011;30288;50.514;9.678;2023-02-01T10:45:56;19.50;;;3.60;;
29902;SDS011;30288;50.514;9.678;2023-02-01T10:48:02;21.75;;;3.80;;
29902;SDS011;30288;50.514;9.678;2023-02-01T10:50:12;18.98;;;4.55;;
29902;SDS011;30288;50.514;9.678;2023-02-01T10:52:35;23.45;;;5.15;;
29902;SDS011;30288;50.514;9.678;2023-02-01T10:54:45;14.93;;;3.30;;
29902;SDS011;30288;50.514;9.678;2023-02-01T10:56:50;22.27;;;3.97;;
29902;SDS011;30288;50.514;9.678;2023-02-01T10:58:59;19.75;;;3.70;;
29902;SDS011;30288;50.514;9.678;2023-02-01T11:01:09;17.98;;;3.30;;
29902;SDS011;30288;50.514;9.678;2023-02-01T11:03:32;17.85;;;4.13;;
29902;SDS011;30288;50.514;9.678;2023-02-01T11:05:43;22.67;;;3.92;;
29902;SDS011;30288;50.514;9.678;2023-02-01T11:07:50;18.13;;;4.45;;
29902;SDS011;30288;50.514;9.678;2023-02-01T11:10:01;18.15;;;3.95;;
29902;SDS011;30288;50.514;9.678;2023-02-01T11:12:20;13.18;;;3.40;;
29902;SDS011;30288;50.514;9.678;2023-02-01T11:14:36;15.30;;;3.42;;
29902;SDS011;30288;50.514;9.678;2023-02-01T11:16:49;20.88;;;4.32;;
29902;SDS011;30288;50.514;9.678;2023-02-01T11:21:02;19.38;;;3.50;;
29902;SDS011;30288;50.514;9.678;2023-02-01T11:23:13;15.85;;;3.83;;
29902;SDS011;30288;50.514;9.678;2023-02-01T11:25:21;11.63;;;3.08;;
29902;SDS011;30288;50.514;9.678;2023-02-01T11:27:27;15.82;;;4.18;;
29902;SDS011;30288;50.514;9.678;2023-02-01T11:29:35;12.73;;;3.20;;
29902;SDS011;30288;50.514;9.678;2023-02-01T11:31:44;13.68;;;3.50;;
29902;SDS011;30288;50.514;9.678;2023-02-01T11:33:54;18.92;;;3.40;;
29902;SDS011;30288;50.514;9.678;2023-02-01T11:36:06;21.95;;;3.22;;
29902;SDS011;30288;50.514;9.678;2023-02-01T11:38:19;16.60;;;3.40;;
29902;SDS011;30288;50.514;9.678;2023-02-01T11:40:34;15.57;;;3.65;;
29902;SDS011;30288;50.514;9.678;2023-02-01T11:42:52;19.20;;;3.65;;
29902;SDS011;30288;50.514;9.678;2023-02-01T11:47:27;16.48;;;3.28;;
29902;SDS011;30288;50.514;9.678;2023-02-01T11:49:34;15.93;;;3.10;;
29902;SDS011;30288;50.514;9.678;2023-02-01T11:51:43;20.73;;;3.60;;
29902;SDS011;30288;50.514;9.678;2023-02-01T11:54:02;18.88;;;3.88;;
29902;SDS011;30288;50.514;9.678;2023-02-01T11:56:41;19.63;;;3.20;;
29902;SDS011;30288;50.514;9.678;2023-02-01T11:59:16;15.60;;;3.67;;
29902;SDS011;30288;50.514;9.678;2023-02-01T12:01:47;18.38;;;3.40;;
29902;SDS011;30288;50.514;9.678;2023-02-01T12:04:23;17.80;;;3.35;;
29902;SDS011;30288;50.514;9.678;2023-02-01T12:07:03;21.00;;;3.78;;
29902;SDS011;30288;50.514;9.678;2023-02-01T12:09:27;12.20;;;3.25;;
29902;SDS011;30288;50.514;9.678;2023-02-01T12:11:54;14.90;;;3.22;;
29902;SDS011;30288;50.514;9.678;2023-02-01T12:14:14;14.00;;;2.88;;
29902;SDS011;30288;50.514;9.678;2023-02-01T12:16:37;10.77;;;3.03;;
29902;SDS011;30288;50.514;9.678;2023-02-01T12:18:59;17.67;;;2.95;;
29902;SDS011;30288;50.514;9.678;2023-02-01T12:21:36;17.60;;;3.28;;
29902;SDS011;30288;50.514;9.678;2023-02-01T12:24:04;16.10;;;2.92;;
29902;SDS011;30288;50.514;9.678;2023-02-01T12:26:33;15.98;;;2.97;;
29902;SDS011;30288;50.514;9.678;2023-02-01T12:29:04;14.57;;;3.22;;
29902;SDS011;30288;50.514;9.678;2023-02-01T12:31:36;13.25;;;2.20;;
29902;SDS011;30288;50.514;9.678;2023-02-01T12:34:05;14.88;;;3.00;;
29902;SDS011;30288;50.514;9.678;2023-02-01T12:36:44;14.48;;;3.08;;
29902;SDS011;30288;50.514;9.678;2023-02-01T12:38:59;16.25;;;3.08;;
29902;SDS011;30288;50.514;9.678;2023-02-01T12:41:18;15.57;;;2.60;;
29902;SDS011;30288;50.514;9.678;2023-02-01T12:43:52;11.60;;;3.05;;
29902;SDS011;30288;50.514;9.678;2023-02-01T12:46:01;11.35;;;2.40;;
29902;SDS011;30288;50.514;9.678;2023-02-01T12:48:18;12.40;;;2.88;;
29902;SDS011;30288;50.514;9.678;2023-02-01T12:50:34;15.57;;;3.03;;
29902;SDS011;30288;50.514;9.678;2023-02-01T12:52:50;16.10;;;2.85;;
29902;SDS011;30288;50.514;9.678;2023-02-01T12:54:59;13.07;;;2.63;;
29902;SDS011;30288;50.514;9.678;2023-02-01T12:57:13;13.05;;;2.75;;
29902;SDS011;30288;50.514;9.678;2023-02-01T12:59:25;12.82;;;2.47;;
29902;SDS011;30288;50.514;9.678;2023-02-01T13:01:37;12.38;;;2.55;;
29902;SDS011;30288;50.514;9.678;2023-02-01T13:03:53;17.90;;;2.42;;
29902;SDS011;30288;50.514;9.678;2023-02-01T13:06:08;15.73;;;2.97;;